Latest Weather Observations for Parndana

IDS60801

Issued at 9:32 pm CDT Wednesday 4 March 2015 (issued every 30 minutes, with the page automatically refreshed every 10 minutes)

About weather observations | Map of weather stations | Latest weather observations for SA | Other Formats
Station Details ID: 022843 Name: PARNDANA CFS AWS Lat: -35.79 Lon: 137.25 Height: 165.0 m
Data from the previous 72 hours. | See also: Recent months at Parndana
Date/Time
CDT
Temp
°C
App
Temp
°C
Dew
Point
Rel
Hum
%
Delta-T
°C
Wind Press
QNH
hPa
Press
MSL
hPa
Rain
since 9 am
mm
Dir
 
Spd
km/h
Gust
km/h
Spd
kts
Gust
kts
04/09:30pm 16.1 13.1 12.7 80 1.9 WSW 20 28 11 15 - - 0.0
04/09:00pm 16.2 12.8 12.6 79 2.0 WSW 22 32 12 17 - - 0.0
04/08:30pm 16.0 12.4 12.9 82 1.7 WSW 24 35 13 19 - - 0.0
04/08:00pm 16.6 13.6 12.4 76 2.3 WSW 20 28 11 15 - - 0.0
04/07:30pm 16.9 12.7 12.4 75 2.5 WSW 26 37 14 20 - - 0.0
04/07:00pm 16.3 10.8 12.5 78 2.1 WSW 33 46 18 25 - - 0.0
04/06:30pm 18.5 13.2 11.3 63 4.0 WSW 30 37 16 20 - - 0.0
04/06:00pm 18.7 13.8 11.3 62 4.1 WSW 28 37 15 20 - - 0.0
04/05:30pm 18.5 13.3 11.6 64 3.8 W 30 48 16 26 - - 0.0
04/05:00pm 18.8 14.7 11.4 62 4.1 WSW 24 32 13 17 - - 0.0
04/04:30pm 19.4 14.5 11.2 59 4.5 W 28 41 15 22 - - 0.0
04/04:00pm 20.3 15.2 10.7 54 5.3 W 28 39 15 21 - - 0.0
04/03:30pm 21.8 17.1 10.6 49 6.2 W 26 43 14 23 - - 0.0
04/03:00pm 20.5 16.5 10.6 53 5.4 W 22 33 12 18 - - 0.0
04/02:30pm 20.2 16.5 11.4 57 4.9 W 22 32 12 17 - - 0.0
04/02:00pm 19.1 14.5 11.2 60 4.3 WSW 26 33 14 18 - - 0.0
04/01:30pm 19.6 16.0 10.6 56 4.9 W 20 33 11 18 - - 0.0
04/01:00pm 19.3 15.7 10.6 57 4.7 W 20 32 11 17 - - 0.0
04/12:30pm 18.8 15.2 10.4 58 4.5 W 20 32 11 17 - - 0.0
04/12:00pm 19.1 15.2 9.6 54 5.1 WSW 20 28 11 15 - - 0.0
04/11:30am 18.1 14.4 10.0 59 4.3 WSW 20 30 11 16 - - 0.0
04/11:00am 18.1 14.2 9.5 57 4.6 WSW 20 30 11 16 - - 0.0
04/10:30am 17.8 13.5 9.4 58 4.4 W 22 32 12 17 - - 0.0
04/10:00am 17.5 13.9 9.7 60 4.1 W 19 30 10 16 - - 0.0
04/09:30am 16.8 13.5 9.7 63 3.7 W 17 20 9 11 - - 0.0
04/09:00am 16.3 13.7 9.5 64 3.6 WNW 13 20 7 11 - - 0.0
04/08:30am 14.8 12.7 9.8 72 2.6 NW 11 13 6 7 - - 0.0
04/08:00am 13.1 11.3 9.5 79 1.8 NW 9 9 5 5 - - 0.0
04/07:30am 12.1 10.6 9.3 83 1.4 WNW 7 9 4 5 - - 0.0
04/07:00am 11.9 10.0 9.1 83 1.4 WNW 9 11 5 6 - - 0.0
04/06:30am 11.5 9.6 9.1 85 1.2 W 9 13 5 7 - - 0.0
04/06:00am 11.5 9.5 8.5 82 1.5 W 9 13 5 7 - - 0.0
04/05:30am 11.7 9.5 9.3 85 1.2 W 11 11 6 6 - - 0.0
04/05:00am 11.1 9.0 8.3 83 1.4 WSW 9 11 5 6 - - 0.0
04/04:30am 11.1 8.6 8.3 83 1.4 WSW 11 13 6 7 - - 0.0
04/04:00am 11.6 8.7 8.3 80 1.6 SW 13 15 7 8 - - 0.0
04/03:30am 11.2 8.7 8.2 82 1.5 SW 11 13 6 7 - - 0.0
04/03:00am 11.8 9.4 8.5 80 1.6 SW 11 13 6 7 - - 0.0
04/02:30am 11.8 10.1 8.5 80 1.6 SW 7 9 4 5 - - 0.0
04/02:00am 11.8 9.9 9.0 83 1.4 SW 9 13 5 7 - - 0.0
04/01:30am 12.0 10.2 9.4 84 1.3 SW 9 11 5 6 - - 0.0
04/01:00am 12.3 10.4 9.1 81 1.6 SW 9 11 5 6 - - 0.0
04/12:30am 12.8 10.6 9.4 80 1.7 SW 11 15 6 8 - - 0.0
04/12:00am 13.2 10.3 9.8 80 1.8 SSW 15 17 8 9 - - 0.0
 
Date/Time
CDT
Temp
°C
App
Temp
°C
Dew
Point
Rel
Hum
%
Delta-T
°C
Wind Press
QNH
hPa
Press
MSL
hPa
Rain
since 9 am
mm
Dir
 
Spd
km/h
Gust
km/h
Spd
kts
Gust
kts
03/11:30pm 13.3 11.3 10.1 81 1.7 SSW 11 15 6 8 - - 0.0
03/11:00pm 13.5 11.5 10.3 81 1.7 SSW 11 13 6 7 - - 0.0
03/10:30pm 12.9 11.2 9.9 82 1.6 SSW 9 11 5 6 - - 0.0
03/10:00pm 13.4 11.0 10.0 80 1.8 SSW 13 15 7 8 - - 0.0
03/09:30pm 13.8 11.3 9.8 77 2.1 SSW 13 17 7 9 - - 0.0
03/09:00pm 13.6 11.4 9.3 75 2.2 SSW 11 13 6 7 - - 0.0
03/08:30pm 15.0 12.5 9.8 71 2.7 SSW 13 17 7 9 - - 0.0
03/08:00pm 15.8 13.0 10.1 69 3.0 S 15 20 8 11 - - 0.0
03/07:30pm 16.9 13.4 10.1 64 3.6 S 19 26 10 14 - - 0.0
03/07:00pm 17.9 14.3 10.0 60 4.2 S 19 26 10 14 - - 0.0
03/06:30pm 18.8 15.3 10.1 57 4.7 S 19 24 10 13 - - 0.0
03/06:00pm 19.3 15.7 9.8 54 5.1 S 19 32 10 17 - - 0.0
03/05:30pm 20.0 16.5 10.1 53 5.4 S 19 28 10 15 - - 0.0
03/05:00pm 20.4 17.0 10.5 53 5.4 SSW 19 28 10 15 - - 0.0
03/04:30pm 20.9 17.6 9.5 48 6.1 SSW 17 30 9 16 - - 0.0
03/04:00pm 20.7 17.6 8.7 46 6.4 SSE 15 22 8 12 - - 0.0
03/03:30pm 21.4 17.5 9.6 47 6.4 SSE 20 28 11 15 - - 0.0
03/03:00pm 20.8 18.4 8.8 46 6.4 SE 11 24 6 13 - - 0.0
03/02:30pm 20.4 17.8 9.3 49 5.9 S 13 26 7 14 - - 0.0
03/02:00pm 19.9 16.6 9.5 51 5.6 S 17 24 9 13 - - 0.0
03/01:30pm 19.6 16.3 9.5 52 5.4 S 17 28 9 15 - - 0.0
03/01:00pm 20.8 17.2 9.7 49 6.0 S 19 32 10 17 - - 0.0
03/12:30pm 19.8 15.9 8.5 48 5.9 S 19 28 10 15 - - 0.0
03/12:00pm 20.3 17.2 8.9 48 6.1 SSE 15 24 8 13 - - 0.0
03/11:30am 19.5 15.7 9.7 53 5.3 S 20 28 11 15 - - 0.0
03/11:00am 19.5 15.8 9.4 52 5.4 SE 19 28 10 15 - - 0.0
03/10:30am 19.7 16.9 10.1 54 5.2 SSE 15 24 8 13 - - 0.0
03/10:00am 17.3 13.7 9.7 61 4.0 SE 19 28 10 15 - - 0.0
03/09:30am 17.4 14.2 10.1 62 3.9 SE 17 26 9 14 - - 0.0
03/09:00am 16.6 14.2 10.0 65 3.5 SSE 13 19 7 10 - - 0.0
03/08:30am 14.4 13.3 10.8 79 1.9 SSE 7 9 4 5 - - 0.0
03/08:00am 12.2 10.9 9.9 86 1.2 S 7 9 4 5 - - 0.0
03/07:30am 11.5 10.4 9.8 89 0.9 SSE 6 7 3 4 - - 0.0
03/07:00am 11.5 10.8 9.9 90 0.8 SSE 4 6 2 3 - - 0.0
03/06:30am 11.2 10.1 9.8 91 0.7 SSE 6 6 3 3 - - 0.0
03/06:00am 10.9 9.4 9.3 90 0.8 SSE 7 9 4 5 - - 0.0
03/05:30am 11.3 9.5 9.6 89 0.9 SSE 9 9 5 5 - - 0.0
03/05:00am 11.4 9.7 9.7 89 0.9 SSE 9 11 5 6 - - 0.0
03/04:30am 12.0 10.4 10.2 89 0.9 SSE 9 11 5 6 - - 0.0
03/04:00am 11.7 9.8 10.4 92 0.7 SSE 11 13 6 7 - - 0.0
03/03:30am 12.0 10.5 10.4 90 0.8 SSE 9 11 5 6 - - 0.0
03/03:00am 12.0 10.5 10.6 91 0.7 SSE 9 11 5 6 - - 0.0
03/02:30am 12.2 10.7 10.4 89 0.9 SSE 9 11 5 6 - - 0.0
03/02:00am 12.5 11.0 10.4 87 1.1 SSE 9 11 5 6 - - 0.0
03/01:30am 13.8 12.1 11.1 84 1.4 SSE 11 15 6 8 - - 0.0
03/01:00am 14.4 12.8 11.4 82 1.6 SSE 11 15 6 8 - - 0.0
03/12:30am 14.5 12.4 11.3 81 1.7 SSE 13 15 7 8 - - 0.0
03/12:00am 14.8 12.4 11.4 80 1.8 SSE 15 19 8 10 - - 0.0
 
Date/Time
CDT
Temp
°C
App
Temp
°C
Dew
Point
Rel
Hum
%
Delta-T
°C
Wind Press
QNH
hPa
Press
MSL
hPa
Rain
since 9 am
mm
Dir
 
Spd
km/h
Gust
km/h
Spd
kts
Gust
kts
02/11:30pm 15.1 12.3 11.5 79 1.9 SSE 17 24 9 13 - - 0.0
02/11:00pm 15.3 12.6 11.7 79 2.0 S 17 28 9 15 - - 0.0
02/10:30pm 15.6 12.6 12.0 79 2.0 S 19 26 10 14 - - 0.0
02/10:00pm 15.8 12.9 12.2 79 2.0 S 19 24 10 13 - - 0.0
02/09:30pm 15.8 13.7 12.4 80 1.9 S 15 20 8 11 - - 0.0
02/09:00pm 15.8 12.9 12.2 79 2.0 S 19 26 10 14 - - 0.0
02/08:30pm 15.9 12.9 11.9 77 2.2 S 19 26 10 14 - - 0.0
02/08:00pm 16.0 12.7 11.6 75 2.4 S 20 26 11 14 - - 0.0
02/07:30pm 16.1 12.4 11.5 74 2.5 S 22 32 12 17 - - 0.0
02/07:00pm 16.4 12.1 12.2 76 2.3 S 26 32 14 17 - - 0.0
02/06:30pm 16.5 12.7 12.5 77 2.2 S 24 32 13 17 - - 0.0
02/06:00pm 17.2 13.6 12.9 76 2.4 S 24 33 13 18 - - 0.0
02/05:30pm 17.6 14.0 13.1 75 2.5 S 24 32 13 17 - - 0.0
02/05:00pm 18.7 15.2 13.3 71 3.1 S 24 35 13 19 - - 0.0
02/04:30pm 19.3 15.3 13.0 67 3.6 SSW 26 33 14 18 - - 0.0
02/04:00pm 21.5 18.5 11.8 54 5.5 SSW 19 28 10 15 - - 0.0
02/03:30pm 22.0 19.2 12.5 54 5.4 SSW 19 24 10 13 - - 0.0
02/03:00pm 24.3 21.7 7.9 35 8.7 WNW 11 17 6 9 - - 0.0
02/02:30pm 23.6 22.1 9.2 40 7.8 NNW 7 13 4 7 - - 0.0
02/02:00pm 23.1 22.1 10.2 44 7.1 NNE 6 13 3 7 - - 0.0
02/01:30pm 21.8 21.1 10.0 47 6.4 NW 4 9 2 5 - - 0.0
02/01:00pm 22.1 21.0 10.6 48 6.4 NW 7 11 4 6 - - 0.0
02/12:30pm 20.8 19.3 10.6 52 5.6 NNE 9 15 5 8 - - 0.0
02/12:00pm 20.3 20.3 11.2 56 5.0 W 2 7 1 4 - - 0.0
02/11:30am 19.2 18.9 11.5 61 4.3 NE 4 9 2 5 - - 0.0
02/11:00am 18.9 18.0 11.5 62 4.1 ESE 7 13 4 7 - - 0.0
02/10:30am 18.2 17.3 12.6 70 3.1 E 9 15 5 8 - - 0.0
02/10:00am 17.3 16.0 12.6 74 2.6 SE 11 15 6 8 - - 0.0
02/09:30am 16.5 15.3 12.7 78 2.1 SSE 11 15 6 8 - - 0.0
02/09:00am 15.0 14.4 12.3 84 1.5 S 7 11 4 6 - - 0.0
02/08:30am 13.7 13.1 11.8 88 1.0 SSW 6 9 3 5 - - 0.0
02/08:00am 12.3 11.6 11.4 94 0.5 SSW 6 7 3 4 - - 0.0
02/07:30am 11.4 10.5 10.6 95 0.4 S 6 6 3 3 - - 0.0
02/07:00am 10.6 9.4 9.7 94 0.5 SW 6 7 3 4 - - 0.0
02/06:30am 10.2 8.9 9.1 93 0.5 SSW 6 7 3 4 - - 0.0
02/06:00am 11.1 9.8 10.0 93 0.6 S 7 9 4 5 - - 0.0
02/05:30am 10.7 9.4 9.8 94 0.5 SSE 7 9 4 5 - - 0.0
02/05:00am 9.8 8.2 8.9 94 0.4 S 7 7 4 4 - - 0.0
02/04:30am 10.5 9.1 9.4 93 0.6 SSE 7 9 4 5 - - 0.0
02/04:00am 10.1 8.8 9.3 95 0.4 SSE 6 7 3 4 - - 0.0
02/03:30am 9.9 8.3 8.7 92 0.6 SE 7 9 4 5 - - 0.0
02/03:00am 10.2 8.2 8.8 91 0.7 ESE 9 9 5 5 - - 0.0
02/02:30am 9.7 8.0 8.3 91 0.7 SE 7 9 4 5 - - 0.0
02/02:00am 10.2 8.5 8.5 89 0.8 SSE 7 9 4 5 - - 0.0
02/01:30am 10.2 8.2 8.6 90 0.8 SE 9 11 5 6 - - 0.0
02/01:00am 9.6 7.4 7.7 88 0.9 SSE 9 15 5 8 - - 0.0
02/12:30am 9.6 6.9 7.4 86 1.1 SSE 11 11 6 6 - - 0.0
02/12:00am 10.4 8.7 8.2 86 1.1 SSE 7 11 4 6 - - 0.0
 
Date/Time
CDT
Temp
°C
App
Temp
°C
Dew
Point
Rel
Hum
%
Delta-T
°C
Wind Press
QNH
hPa
Press
MSL
hPa
Rain
since 9 am
mm
Dir
 
Spd
km/h
Gust
km/h
Spd
kts
Gust
kts
01/11:30pm 10.9 8.4 8.0 82 1.4 SE 11 15 6 8 - - 0.0
01/11:00pm 12.5 9.4 9.0 79 1.8 SE 15 19 8 10 - - 0.0
01/10:30pm 12.8 9.0 8.9 77 2.0 SE 19 24 10 13 - - 0.0
01/10:00pm 13.2 9.4 9.1 76 2.1 SE 19 22 10 12 - - 0.0

Other Formats:

Comma delimited format used in spreadsheet applications
http://www.bom.gov.au/fwo/IDS60801/IDS60801.94807.axf

JavaScript Object Notation format (JSON) in row-major order
http://www.bom.gov.au/fwo/IDS60801/IDS60801.94807.json